Time;durP1;ratioP1;P1;durP2;ratioP2;P2;SDS_P1;SDS_P2;PMS_P1;PMS_P2;Temp;Humidity;BMP_temperature;BMP_pressure;BME280_temperature;BME280_humidity;BME280_pressure;Samples;Min_cycle;Max_cycle;Signal;HPM_P1;HPM_P2
2022/10/22 00:01:56;;;;;;;46.72;34.35;;;;;;;10.06;100.00;99557.56;10626355;27;20051;-72
2022/10/22 00:06:58;;;;;;;52.20;36.30;;;;;;;10.08;100.00;99555.72;10625784;28;20065;-71
2022/10/22 00:12:00;;;;;;;54.80;36.58;;;;;;;10.31;100.00;99547.03;10625142;28;20057;-72
2022/10/22 00:17:02;;;;;;;51.75;35.75;;;;;;;10.27;100.00;99544.53;10606493;28;20050;-72
2022/10/22 00:22:08;;;;;;;49.53;36.63;;;;;;;10.43;100.00;99553.56;10625797;28;20100;-72
2022/10/22 00:27:11;;;;;;;51.70;35.85;;;;;;;10.45;100.00;99541.22;10605750;28;20092;-72
2022/10/22 00:32:14;;;;;;;50.22;37.28;;;;;;;10.44;100.00;99531.59;10606118;28;20044;-72
2022/10/22 00:37:15;;;;;;;48.03;34.15;;;;;;;10.58;100.00;99524.06;10624883;28;20042;-72
2022/10/22 00:42:22;;;;;;;48.20;35.70;;;;;;;10.63;100.00;99530.91;10606172;27;20520;-71
2022/10/22 00:47:25;;;;;;;;;;;;;;;10.54;100.00;99535.59;10632961;27;20504;-72
2022/10/22 00:52:27;;;;;;;55.63;37.30;;;;;;;10.41;100.00;99518.63;10633144;27;19930;-71
2022/10/22 00:57:29;;;;;;;45.42;34.83;;;;;;;10.27;100.00;99527.03;10633313;27;20043;-72
2022/10/22 01:02:31;;;;;;;60.08;37.30;;;;;;;10.11;100.00;99531.13;10632560;27;20047;-72
2022/10/22 01:07:39;;;;;;;54.28;35.50;;;;;;;10.26;100.00;99525.31;10632032;27;20039;-72
2022/10/22 01:13:08;;;;;;;52.25;36.15;;;;;;;10.35;100.00;99524.94;10633019;27;20143;-72
2022/10/22 01:18:25;;;;;;;53.95;37.35;;;;;;;10.35;100.00;99521.47;10632141;27;20043;-72
2022/10/22 01:23:51;;;;;;;;;;;;;;;10.34;100.00;99527.63;10633799;27;20047;-72
2022/10/22 01:29:27;;;;;;;65.10;39.15;;;;;;;10.39;100.00;99535.34;10630884;27;19954;-72
2022/10/22 01:34:30;;;;;;;50.97;35.45;;;;;;;10.42;100.00;99530.84;10613112;27;20134;-72
2022/10/22 01:39:35;;;;;;;56.05;37.38;;;;;;;10.52;100.00;99534.78;10630866;27;20039;-72
2022/10/22 01:44:37;;;;;;;71.15;40.50;;;;;;;10.57;100.00;99526.72;10612570;27;20090;-72
2022/10/22 01:50:24;;;;;;;58.40;39.03;;;;;;;10.54;100.00;99519.84;10631051;27;20133;-72
2022/10/22 01:55:48;;;;;;;56.33;38.72;;;;;;;10.53;100.00;99522.50;10631128;27;20385;-74
2022/10/22 02:01:01;;;;;;;51.05;36.78;;;;;;;10.83;100.00;99525.69;10612542;27;20043;-72
2022/10/22 02:06:13;;;;;;;52.20;36.75;;;;;;;10.76;100.00;99529.50;10631236;27;20043;-72
2022/10/22 02:11:15;;;;;;;56.45;36.47;;;;;;;10.76;100.00;99527.72;10612010;27;20054;-72
2022/10/22 02:16:23;;;;;;;57.45;36.72;;;;;;;10.81;100.00;99517.88;10629643;27;20453;-72
2022/10/22 02:21:25;;;;;;;67.30;38.65;;;;;;;10.83;100.00;99513.38;10628568;27;20039;-72
2022/10/22 02:26:34;;;;;;;57.03;37.22;;;;;;;10.88;100.00;99510.56;10629473;27;20051;-72
2022/10/22 02:31:39;;;;;;;60.03;38.15;;;;;;;10.74;100.00;99511.13;10611215;27;20047;-72
2022/10/22 02:36:42;;;;;;;58.42;38.53;;;;;;;10.71;100.00;99515.66;10610160;27;20051;-72
2022/10/22 02:41:50;;;;;;;53.63;37.90;;;;;;;10.65;100.00;99502.78;10628609;27;20044;-72
2022/10/22 02:46:51;;;;;;;72.88;41.90;;;;;;;10.67;100.00;99514.94;10627652;27;20047;-72
2022/10/22 02:51:53;;;;;;;60.83;38.88;;;;;;;10.86;100.00;99509.78;10609001;27;20070;-72
2022/10/22 02:56:54;;;;;;;61.17;39.55;;;;;;;10.86;100.00;99510.66;10628435;27;20122;-72
2022/10/22 03:01:56;;;;;;;60.92;37.67;;;;;;;10.97;100.00;99510.19;10628341;27;20485;-72
2022/10/22 03:06:57;;;;;;;56.78;38.22;;;;;;;10.98;100.00;99525.06;10626468;27;20050;-72
2022/10/22 03:11:59;;;;;;;64.03;39.25;;;;;;;10.69;100.00;99528.03;10626981;27;20104;-72
2022/10/22 03:17:01;;;;;;;52.03;36.78;;;;;;;10.67;100.00;99524.59;10627161;27;20043;-72
2022/10/22 03:22:08;;;;;;;54.63;38.70;;;;;;;10.73;100.00;99522.56;10627075;27;20499;-72
2022/10/22 03:27:13;;;;;;;58.97;38.65;;;;;;;10.79;100.00;99509.16;10626645;27;20031;-72
2022/10/22 03:32:15;;;;;;;56.70;38.13;;;;;;;10.84;100.00;99517.72;10626408;27;20381;-72
2022/10/22 03:37:18;;;;;;;62.33;37.78;;;;;;;11.04;100.00;99527.44;10626356;27;20051;-72
2022/10/22 03:42:20;;;;;;;51.90;36.03;;;;;;;10.77;100.00;99531.19;10625920;27;20043;-72
2022/10/22 03:47:25;;;;;;;50.03;35.55;;;;;;;10.53;100.00;99533.88;10607188;27;20055;-72
2022/10/22 03:52:26;;;;;;;63.85;38.08;;;;;;;10.51;100.00;99540.13;10626378;27;20519;-72
2022/10/22 03:57:28;;;;;;;61.22;38.92;;;;;;;10.76;100.00;99543.50;10625447;27;20035;-72
2022/10/22 04:02:29;;;;;;;54.45;33.55;;;;;;;10.70;100.00;99540.25;10625206;27;20065;-72
2022/10/22 04:07:31;;;;;;;54.83;34.47;;;;;;;10.78;100.00;99535.53;10624583;28;20035;-72
2022/10/22 04:12:33;;;;;;;48.00;34.58;;;;;;;10.84;100.00;99524.75;10625131;28;20051;-72
2022/10/22 04:17:35;;;;;;;54.72;34.78;;;;;;;11.11;100.00;99525.38;10625232;27;20043;-72
2022/10/22 04:22:37;;;;;;;47.13;34.45;;;;;;;11.08;100.00;99536.06;10633935;27;20051;-72
2022/10/22 04:27:38;;;;;;;49.58;33.42;;;;;;;11.05;100.00;99539.66;10634100;27;20047;-72
2022/10/22 04:32:40;;;;;;;53.10;35.58;;;;;;;10.99;100.00;99553.06;10634490;27;20047;-72
2022/10/22 04:37:42;;;;;;;51.25;34.80;;;;;;;10.90;100.00;99542.06;10622656;22;20513;-69
2022/10/22 04:42:43;;;;;;;49.50;35.78;;;;;;;10.96;100.00;99547.94;10548338;28;20055;-69
2022/10/22 04:47:45;;;;;;;51.25;35.60;;;;;;;10.80;100.00;99541.56;10567154;28;20036;-70
2022/10/22 04:52:47;;;;;;;54.08;37.13;;;;;;;10.71;100.00;99537.53;10590792;28;20055;-70
2022/10/22 04:57:48;;;;;;;54.72;35.30;;;;;;;10.62;100.00;99530.03;10590655;28;20553;-70
2022/10/22 05:02:50;;;;;;;57.08;36.28;;;;;;;10.58;100.00;99525.81;10572433;28;20096;-70
2022/10/22 05:07:52;;;;;;;53.90;34.97;;;;;;;10.61;100.00;99531.81;10573399;28;20043;-70
2022/10/22 05:12:53;;;;;;;65.07;38.92;;;;;;;10.65;100.00;99531.69;10571506;28;20108;-70
2022/10/22 05:17:55;;;;;;;51.72;35.63;;;;;;;10.69;100.00;99533.28;10571950;28;20039;-70
2022/10/22 05:22:56;;;;;;;54.80;38.17;;;;;;;10.49;100.00;99537.56;10571572;28;20044;-70
2022/10/22 05:27:58;;;;;;;53.92;36.13;;;;;;;10.41;100.00;99547.50;10589457;28;20088;-69
2022/10/22 05:33:00;;;;;;;56.90;35.92;;;;;;;10.57;100.00;99567.00;10590151;28;20071;-70
2022/10/22 05:38:02;;;;;;;55.80;35.63;;;;;;;10.68;100.00;99563.97;10571739;28;20061;-70
2022/10/22 05:43:04;;;;;;;60.30;37.75;;;;;;;10.59;100.00;99572.22;10590176;28;20431;-71
2022/10/22 05:48:06;;;;;;;56.88;36.47;;;;;;;10.70;100.00;99564.75;10570907;28;20507;-70
2022/10/22 05:53:09;;;;;;;52.80;34.45;;;;;;;10.50;100.00;99569.94;10588461;28;20040;-70
2022/10/22 05:58:11;;;;;;;57.45;35.90;;;;;;;10.51;100.00;99575.13;10587079;28;20067;-69
2022/10/22 06:03:13;;;;;;;54.03;35.40;;;;;;;10.74;100.00;99589.16;10588127;28;20546;-70
2022/10/22 06:08:14;;;;;;;47.22;33.75;;;;;;;10.74;100.00;99597.88;10569940;28;20409;-70
2022/10/22 06:13:19;;;;;;;45.25;33.30;;;;;;;10.80;100.00;99604.66;10568803;28;20478;-68
2022/10/22 06:18:21;;;;;;;44.63;33.40;;;;;;;10.96;100.00;99602.31;10586637;28;20058;-68
2022/10/22 06:23:22;;;;;;;48.95;34.72;;;;;;;10.94;100.00;99605.00;10586707;28;20073;-69
2022/10/22 06:28:24;;;;;;;39.20;32.58;;;;;;;10.99;100.00;99605.66;10588249;28;20090;-69
2022/10/22 06:33:28;;;;;;;39.75;33.33;;;;;;;10.93;100.00;99602.41;10568950;28;20093;-68
2022/10/22 06:38:29;;;;;;;45.42;32.92;;;;;;;11.02;100.00;99612.56;10587583;28;20458;-68
2022/10/22 06:43:31;;;;;;;39.45;32.00;;;;;;;10.94;100.00;99633.94;10586004;28;20059;-69
2022/10/22 06:48:34;;;;;;;43.97;33.13;;;;;;;11.07;100.00;99634.31;10586125;28;20370;-68
2022/10/22 06:53:38;;;;;;;43.03;33.08;;;;;;;11.01;100.00;99645.91;10586070;28;20047;-69
2022/10/22 06:58:40;;;;;;;36.15;30.45;;;;;;;10.94;100.00;99639.19;10584278;28;20068;-69
2022/10/22 07:03:42;;;;;;;44.97;32.45;;;;;;;11.17;100.00;99656.69;10567265;28;20051;-68
2022/10/22 07:08:44;;;;;;;37.00;29.85;;;;;;;11.32;100.00;99655.19;10567502;28;20089;-68
2022/10/22 07:13:46;;;;;;;47.75;31.88;;;;;;;11.12;100.00;99663.91;10585258;28;20100;-69
2022/10/22 07:18:48;;;;;;;44.40;30.33;;;;;;;11.12;100.00;99679.69;10584567;28;20085;-68
2022/10/22 07:23:49;;;;;;;42.30;31.45;;;;;;;11.20;100.00;99682.00;10584941;28;20047;-68
2022/10/22 07:28:51;;;;;;;42.25;30.90;;;;;;;11.11;100.00;99689.34;10584633;28;20039;-68
2022/10/22 07:33:53;;;;;;;43.45;31.65;;;;;;;11.07;100.00;99698.28;10584794;28;20043;-68
2022/10/22 07:38:57;;;;;;;48.72;32.97;;;;;;;10.99;100.00;99688.97;10565493;28;20075;-68
2022/10/22 07:43:58;;;;;;;55.22;31.88;;;;;;;11.08;100.00;99709.66;10565686;28;20393;-68
2022/10/22 07:49:00;;;;;;;46.33;32.00;;;;;;;10.90;100.00;99708.59;10566046;28;20042;-71
2022/10/22 07:54:03;;;;;;;40.67;31.30;;;;;;;10.96;100.00;99718.00;10584983;28;20054;-71
2022/10/22 07:59:04;;;;;;;52.20;33.65;;;;;;;11.04;100.00;99714.16;10584383;28;20073;-71
2022/10/22 08:04:09;;;;;;;39.65;32.25;;;;;;;10.94;100.00;99718.09;10583841;28;20043;-71
2022/10/22 08:09:11;;;;;;;56.25;37.03;;;;;;;11.08;100.00;99721.03;10584729;28;20040;-74
2022/10/22 08:14:13;;;;;;;8.57;7.40;;;;;;;11.71;100.00;99725.56;10549651;28;20147;-70
2022/10/22 08:19:19;;;;;;;3.67;3.00;;;;;;;12.78;100.00;99724.41;10584651;28;20047;-71
2022/10/22 08:24:21;;;;;;;3.38;1.70;;;;;;;13.10;100.00;99725.56;10583567;28;20046;-72
2022/10/22 08:29:23;;;;;;;1.60;1.50;;;;;;;13.28;100.00;99731.78;10564965;28;20044;-71
2022/10/22 08:34:25;;;;;;;2.30;1.50;;;;;;;13.44;100.00;99726.63;10582871;28;20055;-70
2022/10/22 08:39:27;;;;;;;1.23;1.13;;;;;;;13.44;100.00;99739.81;10565719;28;20408;-70
2022/10/22 08:45:02;;;;;;;2.88;1.45;;;;;;;13.41;100.00;99736.47;10583709;28;20048;-70
2022/10/22 08:50:11;;;;;;;1.67;1.10;;;;;;;13.89;100.00;99731.41;10516423;28;20051;-71
2022/10/22 08:55:14;;;;;;;2.17;1.30;;;;;;;13.93;100.00;99736.53;10584743;28;20039;-70
2022/10/22 09:00:41;;;;;;;3.15;2.15;;;;;;;13.89;100.00;99739.34;10584098;28;20043;-70
2022/10/22 09:05:51;;;;;;;2.20;1.15;;;;;;;13.89;100.00;99746.41;10587838;28;20040;-70
2022/10/22 09:11:36;;;;;;;1.70;1.33;;;;;;;13.77;100.00;99753.19;10588869;28;20515;-70
2022/10/22 09:17:23;;;;;;;6.75;6.15;;;;;;;13.83;100.00;99758.13;10589779;28;20073;-70
2022/10/22 09:22:45;;;;;;;11.45;10.45;;;;;;;13.70;100.00;99750.91;10361696;28;20062;-67
2022/10/22 09:27:48;;;;;;;21.98;20.10;;;;;;;13.57;100.00;99758.56;10377081;28;20078;-70
2022/10/22 09:33:10;;;;;;;25.70;23.83;;;;;;;13.62;100.00;99762.69;10377951;28;20060;-69
2022/10/22 09:38:15;;;;;;;31.40;28.50;;;;;;;13.83;100.00;99755.50;10377027;28;20050;-68
2022/10/22 09:43:17;;;;;;;24.02;22.27;;;;;;;14.60;100.00;99759.53;10376399;28;20515;-70
2022/10/22 09:48:27;;;;;;;18.08;16.77;;;;;;;14.59;100.00;99745.47;10376412;28;20054;-68
2022/10/22 09:53:30;;;;;;;18.23;16.92;;;;;;;14.34;100.00;99745.00;10376091;28;20057;-68
2022/10/22 09:58:42;;;;;;;17.58;16.08;;;;;;;14.74;100.00;99758.81;10482341;28;20052;-69
2022/10/22 10:03:44;;;;;;;17.58;16.13;;;;;;;15.05;100.00;99774.78;10544852;28;20101;-68
2022/10/22 10:08:47;;;;;;;16.60;15.25;;;;;;;15.73;100.00;99768.38;10546108;28;20539;-68
2022/10/22 10:14:02;;;;;;;14.68;13.48;;;;;;;16.32;100.00;99772.84;10526627;28;20459;-68
2022/10/22 10:19:24;;;;;;;15.32;14.13;;;;;;;16.59;100.00;99786.25;10543794;28;20070;-68
2022/10/22 10:24:44;;;;;;;14.20;13.00;;;;;;;16.40;100.00;99786.50;10545157;28;20040;-69
2022/10/22 10:30:01;;;;;;;12.90;11.90;;;;;;;16.79;100.00;99785.06;10526346;28;20048;-70
2022/10/22 10:35:27;;;;;;;11.95;11.05;;;;;;;16.49;100.00;99777.13;10545340;28;20089;-69
2022/10/22 10:40:42;;;;;;;1.58;0.68;;;;;;;16.60;91.92;99781.78;10611854;22;20064;-73
2022/10/22 10:45:56;;;;;;;0.80;0.60;;;;;;;16.78;88.43;99778.06;10608980;27;20089;-71
2022/10/22 10:51:18;;;;;;;0.40;0.40;;;;;;;16.72;88.10;99773.13;10627529;27;20174;-72
2022/10/22 10:56:34;;;;;;;1.33;0.40;;;;;;;16.75;82.90;99782.69;10626740;27;20047;-73
2022/10/22 11:02:12;;;;;;;1.02;0.40;;;;;;;16.90;81.23;99792.38;10606692;27;20039;-73
2022/10/22 11:07:21;;;;;;;0.40;0.40;;;;;;;16.80;84.49;99799.19;10607872;27;20090;-72
2022/10/22 11:12:41;;;;;;;0.40;0.40;;;;;;;16.61;86.69;99812.72;10610402;27;20064;-73
2022/10/22 11:17:46;;;;;;;1.13;0.40;;;;;;;16.34;85.58;99802.78;10626152;27;20052;-72
2022/10/22 11:23:02;;;;;;;0.57;0.40;;;;;;;16.05;88.43;99809.78;10607680;27;20104;-73
2022/10/22 11:28:28;;;;;;;0.40;0.40;;;;;;;15.97;87.96;99805.88;10625626;27;20050;-72
2022/10/22 11:34:13;;;;;;;0.73;0.45;;;;;;;16.13;87.52;99804.91;10625630;27;20084;-73
2022/10/22 11:39:41;;;;;;;0.93;0.50;;;;;;;16.27;87.44;99792.63;10625127;27;20078;-73
2022/10/22 11:45:03;;;;;;;0.63;0.50;;;;;;;16.30;90.88;99787.16;10607407;27;20043;-72
2022/10/22 11:50:42;;;;;;;0.70;0.70;;;;;;;16.50;91.27;99799.22;10626741;27;20099;-74
2022/10/22 11:55:50;;;;;;;1.58;0.82;;;;;;;16.60;86.89;99790.63;10596249;27;20062;-73
2022/10/22 12:01:01;;;;;;;1.67;0.80;;;;;;;16.47;88.93;99789.66;10606299;27;20104;-73
2022/10/22 12:06:14;;;;;;;1.45;0.60;;;;;;;16.71;88.26;99787.31;10625088;27;20104;-73
2022/10/22 12:11:27;;;;;;;1.27;0.50;;;;;;;16.82;85.83;99794.63;10624768;28;20059;-72
2022/10/22 12:16:32;;;;;;;1.25;0.77;;;;;;;16.74;88.24;99781.84;10606873;28;20069;-72
2022/10/22 12:21:58;;;;;;;1.33;0.80;;;;;;;16.74;89.92;99784.50;10624403;28;20142;-73
2022/10/22 12:27:00;;;;;;;0.70;0.70;;;;;;;16.56;89.14;99796.22;10624435;28;20450;-74
2022/10/22 12:32:03;;;;;;;2.88;0.60;;;;;;;16.98;80.22;99789.25;10625442;28;20480;-73
2022/10/22 12:37:05;;;;;;;0.75;0.65;;;;;;;17.23;79.43;99789.41;10624543;28;20043;-74
2022/10/22 12:42:12;;;;;;;0.70;0.70;;;;;;;17.24;79.34;99791.13;10614168;27;20344;-73
2022/10/22 12:47:17;;;;;;;1.23;0.70;;;;;;;17.14;79.41;99785.53;10599577;27;20052;-74
2022/10/22 12:52:22;;;;;;;0.50;0.50;;;;;;;17.34;79.30;99780.75;10616259;27;20118;-74
2022/10/22 12:57:24;;;;;;;3.58;0.52;;;;;;;17.03;76.75;99782.69;10615176;27;20043;-75
2022/10/22 13:02:27;;;;;;;0.85;0.50;;;;;;;17.01;77.98;99789.06;10632667;27;20115;-74
2022/10/22 13:07:38;;;;;;;1.60;0.70;;;;;;;17.22;75.09;99785.06;10632935;27;20446;-75
2022/10/22 13:12:47;;;;;;;1.20;0.70;;;;;;;17.27;73.23;99782.13;10631507;27;20039;-75
2022/10/22 13:17:49;;;;;;;0.50;0.50;;;;;;;17.20;74.10;99794.06;10631084;27;20043;-73
2022/10/22 13:23:02;;;;;;;2.13;0.50;;;;;;;16.96;75.81;99793.81;10631120;27;20035;-74
2022/10/22 13:28:20;;;;;;;0.85;0.40;;;;;;;16.82;76.72;99800.81;10631152;27;20043;-74
2022/10/22 13:33:33;;;;;;;0.73;0.40;;;;;;;16.96;76.90;99802.63;10632128;27;20092;-75
2022/10/22 13:38:35;;;;;;;1.83;0.90;;;;;;;17.11;76.45;99800.81;10612966;27;20057;-74
2022/10/22 13:43:37;;;;;;;2.03;0.65;;;;;;;17.07;77.49;99804.59;10613079;27;20069;-75
2022/10/22 13:48:38;;;;;;;5.13;0.77;;;;;;;17.07;77.28;99807.25;10630710;27;20058;-74
2022/10/22 13:53:42;;;;;;;2.15;0.60;;;;;;;17.27;75.51;99801.56;10630029;27;20047;-75
2022/10/22 13:58:45;;;;;;;0.60;0.40;;;;;;;17.54;71.49;99811.38;10629922;27;20124;-75
2022/10/22 14:03:53;;;;;;;0.50;0.45;;;;;;;17.17;73.89;99818.16;10629605;27;20057;-74
2022/10/22 14:08:58;;;;;;;2.45;0.40;;;;;;;16.95;75.03;99808.84;10629766;27;20039;-74
2022/10/22 14:14:02;;;;;;;0.88;0.30;;;;;;;16.81;77.31;99809.72;10630174;27;20103;-74
2022/10/22 14:19:06;;;;;;;0.50;0.30;;;;;;;16.72;77.81;99807.63;10629253;27;20031;-73
2022/10/22 14:24:10;;;;;;;1.75;0.40;;;;;;;17.17;73.76;99820.81;10628949;27;20047;-74
2022/10/22 14:29:13;;;;;;;2.10;0.50;;;;;;;16.90;75.06;99814.47;10628478;27;20172;-74
2022/10/22 14:34:15;;;;;;;1.30;0.50;;;;;;;16.72;77.46;99812.94;10629271;27;20047;-75
2022/10/22 14:39:17;;;;;;;1.50;0.60;;;;;;;16.48;79.81;99817.03;10628131;27;20056;-74
2022/10/22 14:44:19;;;;;;;1.13;0.50;;;;;;;16.28;81.42;99818.19;10629179;27;20039;-76
2022/10/22 14:49:20;;;;;;;1.55;0.60;;;;;;;16.30;81.83;99821.63;10628454;27;20036;-74
2022/10/22 14:54:22;;;;;;;1.02;0.88;;;;;;;16.14;84.06;99824.31;10628647;27;20096;-75
2022/10/22 14:59:23;;;;;;;1.73;0.60;;;;;;;16.17;83.12;99828.59;10608525;27;20054;-76
2022/10/22 15:04:26;;;;;;;1.05;0.43;;;;;;;16.72;79.03;99835.94;10625854;27;20054;-74
2022/10/22 15:09:27;;;;;;;2.47;0.60;;;;;;;16.67;80.23;99830.06;10626052;27;20404;-75
2022/10/22 15:14:29;;;;;;;0.50;0.40;;;;;;;16.80;78.85;99833.72;10607929;27;20072;-74
2022/10/22 15:19:31;;;;;;;0.55;0.50;;;;;;;16.72;79.84;99841.25;10625864;27;20488;-74
2022/10/22 15:24:33;;;;;;;1.15;0.50;;;;;;;16.41;82.12;99848.38;10625661;27;20043;-74
2022/10/22 15:29:35;;;;;;;1.23;0.70;;;;;;;16.21;83.47;99846.03;10607703;27;20122;-74
2022/10/22 15:34:38;;;;;;;0.90;0.60;;;;;;;16.13;84.45;99863.25;10625795;27;20042;-75
2022/10/22 15:39:41;;;;;;;1.10;0.60;;;;;;;15.89;86.36;99865.50;10624837;27;20065;-74
2022/10/22 15:44:42;;;;;;;1.42;0.80;;;;;;;15.79;88.90;99874.03;10590101;27;20058;-74
2022/10/22 15:49:44;;;;;;;1.48;1.33;;;;;;;15.65;91.40;99890.69;10625382;27;20085;-73
2022/10/22 15:54:46;;;;;;;2.20;0.93;;;;;;;15.36;93.87;99889.59;10625332;27;20039;-73
2022/10/22 15:59:48;;;;;;;1.60;0.70;;;;;;;15.06;96.24;99894.75;10624622;27;20073;-74
2022/10/22 16:04:50;;;;;;;1.08;0.88;;;;;;;14.88;97.84;99899.22;10624853;27;20088;-74
2022/10/22 16:09:57;;;;;;;1.67;0.85;;;;;;;14.88;100.00;99900.06;10625164;27;20459;-73
2022/10/22 16:14:58;;;;;;;1.90;1.25;;;;;;;14.85;100.00;99907.28;10585706;28;20047;-74
2022/10/22 16:20:00;;;;;;;1.92;1.40;;;;;;;14.48;100.00;99913.56;10591343;28;20046;-74
2022/10/22 16:25:02;;;;;;;1.80;1.60;;;;;;;14.16;100.00;99915.97;10590822;28;20053;-74
2022/10/22 16:30:04;;;;;;;2.72;1.70;;;;;;;14.04;100.00;99927.16;10590452;28;20130;-74
2022/10/22 16:35:07;;;;;;;2.30;1.98;;;;;;;13.93;100.00;99934.72;10590079;28;20055;-75
2022/10/22 16:40:09;;;;;;;3.08;1.85;;;;;;;13.70;100.00;99944.59;10601994;22;20395;-68
2022/10/22 16:45:11;;;;;;;3.13;1.90;;;;;;;13.58;100.00;99945.13;10574456;28;20067;-68
2022/10/22 16:50:13;;;;;;;4.82;2.22;;;;;;;13.55;100.00;99951.44;10634385;27;20035;-69
2022/10/22 16:55:15;;;;;;;3.53;3.22;;;;;;;13.32;100.00;99949.78;10634914;27;20055;-69
2022/10/22 17:00:16;;;;;;;5.47;3.15;;;;;;;13.36;100.00;99955.81;10634186;27;20118;-69
2022/10/22 17:05:19;;;;;;;3.22;2.88;;;;;;;13.33;100.00;99961.25;10634438;27;20043;-69
2022/10/22 17:10:21;;;;;;;5.90;3.08;;;;;;;13.32;100.00;99976.19;10632873;27;20366;-68
2022/10/22 17:15:23;;;;;;;4.20;3.35;;;;;;;13.00;100.00;99982.00;10633216;27;20084;-69
2022/10/22 17:20:25;;;;;;;5.15;4.65;;;;;;;12.73;100.00;99982.22;10615181;27;20039;-69
2022/10/22 17:25:43;;;;;;;5.30;4.90;;;;;;;12.56;100.00;99988.19;10613517;27;20096;-69
2022/10/22 17:30:45;;;;;;;5.20;4.70;;;;;;;12.37;100.00;99992.50;10632086;27;20496;-69
2022/10/22 17:35:48;;;;;;;6.95;4.75;;;;;;;12.36;100.00;99996.06;10597633;27;20067;-69
2022/10/22 17:40:49;;;;;;;4.40;3.92;;;;;;;12.35;100.00;100010.13;10631517;27;20381;-69
2022/10/22 17:45:51;;;;;;;3.95;3.55;;;;;;;12.40;100.00;100010.81;10612855;27;20529;-69
2022/10/22 17:50:53;;;;;;;3.53;3.00;;;;;;;12.50;100.00;100019.22;10631557;27;20043;-69
2022/10/22 17:56:00;;;;;;;3.70;3.40;;;;;;;12.47;100.00;100037.78;10614686;27;20096;-70
2022/10/22 18:01:03;;;;;;;6.13;4.30;;;;;;;12.44;100.00;100038.78;10632662;27;20038;-68
2022/10/22 18:06:06;;;;;;;5.68;4.55;;;;;;;12.36;100.00;100046.13;10632254;27;20092;-68
2022/10/22 18:11:10;;;;;;;5.53;5.03;;;;;;;12.30;100.00;100041.06;10630107;27;20043;-68
2022/10/22 18:16:12;;;;;;;4.82;4.43;;;;;;;12.12;100.00;100043.50;10630118;27;20488;-68
2022/10/22 18:21:15;;;;;;;4.90;4.50;;;;;;;11.99;100.00;100050.16;10630782;27;20377;-69
2022/10/22 18:26:17;;;;;;;4.50;4.10;;;;;;;11.91;100.00;100048.72;10630077;27;20039;-69
2022/10/22 18:31:25;;;;;;;6.88;5.03;;;;;;;11.80;100.00;100049.09;10630685;27;20096;-69
2022/10/22 18:36:27;;;;;;;6.07;5.22;;;;;;;11.77;100.00;100055.31;10629005;27;20407;-69
2022/10/22 18:41:30;;;;;;;7.30;6.78;;;;;;;11.80;100.00;100057.84;10629304;27;20088;-69
2022/10/22 18:46:33;;;;;;;10.75;9.95;;;;;;;11.80;100.00;100052.56;10628745;27;20545;-68
2022/10/22 18:51:35;;;;;;;11.07;10.32;;;;;;;11.84;100.00;100056.84;10629829;27;20138;-68
2022/10/22 18:56:39;;;;;;;9.23;8.43;;;;;;;11.85;100.00;100049.81;10629153;27;20047;-68
2022/10/22 19:01:41;;;;;;;10.07;9.18;;;;;;;11.79;100.00;100050.00;10627241;27;20118;-68
2022/10/22 19:06:42;;;;;;;14.80;11.20;;;;;;;11.99;100.00;100057.19;10627113;27;20520;-68
2022/10/22 19:11:46;;;;;;;12.05;10.98;;;;;;;11.63;100.00;100045.28;10628677;27;20039;-68
2022/10/22 19:16:48;;;;;;;6.45;5.95;;;;;;;11.43;100.00;100054.81;10625792;27;20043;-69
2022/10/22 19:21:50;;;;;;;6.38;5.85;;;;;;;11.29;100.00;100056.16;10625227;27;20061;-70
2022/10/22 19:26:52;;;;;;;6.18;5.63;;;;;;;11.18;100.00;100062.69;10629725;27;20478;-69
2022/10/22 19:31:54;;;;;;;5.82;5.30;;;;;;;11.20;100.00;100061.72;10608111;27;20043;-69
2022/10/22 19:36:55;;;;;;;6.28;5.45;;;;;;;11.40;100.00;100062.81;10625217;27;20584;-69
2022/10/22 19:41:57;;;;;;;5.95;5.22;;;;;;;11.56;100.00;100061.38;10625207;27;20066;-69
2022/10/22 19:46:58;;;;;;;5.03;4.63;;;;;;;11.78;100.00;100064.09;10605881;27;20051;-69
2022/10/22 19:52:01;;;;;;;4.70;4.30;;;;;;;11.95;100.00;100069.63;10625844;27;20035;-69
2022/10/22 19:57:03;;;;;;;6.53;3.65;;;;;;;12.22;100.00;100069.50;10607704;27;20381;-69
2022/10/22 20:02:05;;;;;;;5.20;3.33;;;;;;;12.72;100.00;100074.59;10625485;27;20046;-69
2022/10/22 20:07:06;;;;;;;4.28;2.33;;;;;;;12.99;100.00;100077.91;10606978;27;20047;-69
2022/10/22 20:12:08;;;;;;;4.90;1.92;;;;;;;13.32;100.00;100080.94;10625587;27;20050;-69
2022/10/22 20:17:10;;;;;;;4.32;1.88;;;;;;;13.62;100.00;100084.91;10626008;28;20043;-69
2022/10/22 20:22:12;;;;;;;2.90;1.77;;;;;;;13.78;100.00;100084.25;10626312;28;20043;-72
2022/10/22 20:27:19;;;;;;;3.00;1.88;;;;;;;13.86;100.00;100093.56;10625093;28;20070;-72
2022/10/22 20:32:22;;;;;;;2.83;1.70;;;;;;;13.93;99.42;100095.91;10627916;28;20099;-71
2022/10/22 20:37:24;;;;;;;4.95;1.40;;;;;;;14.04;97.78;100107.75;10626572;28;20411;-72
2022/10/22 20:42:26;;;;;;;1.92;1.30;;;;;;;13.81;99.08;100111.41;10625336;28;20035;-72
2022/10/22 20:47:28;;;;;;;2.38;1.42;;;;;;;13.75;99.53;100118.72;10606874;28;20134;-70
2022/10/22 20:52:50;;;;;;;2.42;1.50;;;;;;;13.60;100.00;100115.81;10625072;28;20492;-72
2022/10/22 20:57:51;;;;;;;2.95;1.35;;;;;;;13.53;100.00;100121.44;10606679;28;20043;-71
2022/10/22 21:02:53;;;;;;;3.55;1.48;;;;;;;13.53;100.00;100122.28;10631722;27;20381;-72
2022/10/22 21:07:57;;;;;;;3.60;1.60;;;;;;;13.62;100.00;100111.31;10614768;27;20043;-71
2022/10/22 21:12:59;;;;;;;2.42;1.38;;;;;;;13.57;100.00;100117.72;10632462;27;20488;-72
2022/10/22 21:18:00;;;;;;;3.65;1.73;;;;;;;13.44;100.00;100125.31;10631850;27;20047;-71
2022/10/22 21:23:02;;;;;;;3.75;1.80;;;;;;;13.10;100.00;100123.16;10631583;27;20039;-71
2022/10/22 21:28:03;;;;;;;5.93;1.92;;;;;;;12.92;100.00;100119.50;10630792;27;20040;-71
2022/10/22 21:33:05;;;;;;;2.33;1.70;;;;;;;12.76;100.00;100131.59;10631135;27;20043;-71
2022/10/22 21:38:07;;;;;;;4.10;1.50;;;;;;;12.63;100.00;100126.78;10612520;27;20047;-71
2022/10/22 21:43:08;;;;;;;4.28;1.90;;;;;;;12.48;100.00;100132.63;10630899;27;20031;-72
2022/10/22 21:48:12;;;;;;;4.35;2.10;;;;;;;12.38;100.00;100126.00;10629938;27;20035;-72
2022/10/22 21:53:14;;;;;;;4.57;1.92;;;;;;;12.19;100.00;100133.75;10629958;27;20109;-72
2022/10/22 21:58:15;;;;;;;2.85;1.90;;;;;;;11.86;100.00;100138.44;10629381;27;20035;-71
2022/10/22 22:03:17;;;;;;;6.20;5.70;;;;;;;11.65;100.00;100140.03;10629867;27;20107;-71
2022/10/22 22:08:19;;;;;;;13.40;10.98;;;;;;;11.42;100.00;100139.94;10611928;27;20047;-70
2022/10/22 22:13:23;;;;;;;12.38;11.27;;;;;;;11.25;100.00;100136.09;10611146;27;20032;-71
2022/10/22 22:18:25;;;;;;;12.65;11.55;;;;;;;11.09;100.00;100142.78;10629626;27;20125;-71
2022/10/22 22:23:27;;;;;;;14.57;13.27;;;;;;;11.06;100.00;100143.72;10629453;27;20395;-72
2022/10/22 22:28:29;;;;;;;13.68;12.57;;;;;;;10.84;100.00;100137.41;10611483;27;20047;-71
2022/10/22 22:33:30;;;;;;;13.82;12.82;;;;;;;10.91;100.00;100138.94;10628616;27;20035;-70
2022/10/22 22:38:32;;;;;;;14.20;13.10;;;;;;;10.89;100.00;100142.53;10628704;27;20035;-70
2022/10/22 22:43:35;;;;;;;13.90;12.90;;;;;;;10.56;100.00;100143.53;10613115;22;20067;-77
2022/10/22 22:48:37;;;;;;;12.38;11.32;;;;;;;10.47;100.00;100148.19;10585713;28;20042;-76
2022/10/22 22:53:39;;;;;;;14.10;12.93;;;;;;;10.67;100.00;100151.09;10589177;28;20040;-77
2022/10/22 22:58:41;;;;;;;14.48;13.38;;;;;;;10.59;100.00;100146.06;10585485;28;20078;-76
2022/10/22 23:03:45;;;;;;;13.75;12.13;;;;;;;10.19;100.00;100141.09;10566967;28;20130;-75
2022/10/22 23:08:48;;;;;;;15.45;12.52;;;;;;;10.34;100.00;100142.44;10566959;28;20044;-76